sensor_id;sensor_type;location;lat;lon;timestamp;temperature;humidity
2687;DHT22;1353;51.386;7.028;2022-09-14T00:01:27;15.60;99.90
2687;DHT22;1353;51.386;7.028;2022-09-14T00:03:55;15.50;99.90
2687;DHT22;1353;51.386;7.028;2022-09-14T00:06:22;15.60;99.90
2687;DHT22;1353;51.386;7.028;2022-09-14T00:08:50;15.50;99.90
2687;DHT22;1353;51.386;7.028;2022-09-14T00:11:18;15.60;99.90
2687;DHT22;1353;51.386;7.028;2022-09-14T00:13:46;15.50;99.90
2687;DHT22;1353;51.386;7.028;2022-09-14T00:16:16;15.40;99.90
2687;DHT22;1353;51.386;7.028;2022-09-14T00:18:44;15.50;99.90
2687;DHT22;1353;51.386;7.028;2022-09-14T00:21:11;15.50;99.90
2687;DHT22;1353;51.386;7.028;2022-09-14T00:23:39;15.60;99.90
2687;DHT22;1353;51.386;7.028;2022-09-14T00:26:10;15.50;99.90
2687;DHT22;1353;51.386;7.028;2022-09-14T00:28:39;15.60;99.90
2687;DHT22;1353;51.386;7.028;2022-09-14T00:31:06;15.50;99.90
2687;DHT22;1353;51.386;7.028;2022-09-14T00:33:35;15.50;99.90
2687;DHT22;1353;51.386;7.028;2022-09-14T00:36:06;15.50;99.90
2687;DHT22;1353;51.386;7.028;2022-09-14T00:38:34;15.40;99.90
2687;DHT22;1353;51.386;7.028;2022-09-14T00:41:03;15.40;99.90
2687;DHT22;1353;51.386;7.028;2022-09-14T00:43:31;15.40;99.90
2687;DHT22;1353;51.386;7.028;2022-09-14T00:45:59;15.40;99.90
2687;DHT22;1353;51.386;7.028;2022-09-14T00:48:27;15.40;99.90
2687;DHT22;1353;51.386;7.028;2022-09-14T00:50:56;15.40;99.90
2687;DHT22;1353;51.386;7.028;2022-09-14T00:53:23;15.40;99.90
2687;DHT22;1353;51.386;7.028;2022-09-14T00:55:50;15.50;99.90
2687;DHT22;1353;51.386;7.028;2022-09-14T00:58:19;15.50;99.90
2687;DHT22;1353;51.386;7.028;2022-09-14T01:00:46;15.40;99.90
2687;DHT22;1353;51.386;7.028;2022-09-14T01:03:12;15.40;99.90
2687;DHT22;1353;51.386;7.028;2022-09-14T01:05:50;15.40;99.90
2687;DHT22;1353;51.386;7.028;2022-09-14T01:08:28;15.40;99.90
2687;DHT22;1353;51.386;7.028;2022-09-14T01:11:26;15.40;99.90
2687;DHT22;1353;51.386;7.028;2022-09-14T01:14:01;15.40;99.90
2687;DHT22;1353;51.386;7.028;2022-09-14T01:16:33;15.40;99.90
2687;DHT22;1353;51.386;7.028;2022-09-14T01:19:05;15.40;99.90
2687;DHT22;1353;51.386;7.028;2022-09-14T01:21:36;15.30;99.90
2687;DHT22;1353;51.386;7.028;2022-09-14T01:24:12;15.30;99.90
2687;DHT22;1353;51.386;7.028;2022-09-14T01:27:07;15.40;99.90
2687;DHT22;1353;51.386;7.028;2022-09-14T01:29:39;15.30;99.90
2687;DHT22;1353;51.386;7.028;2022-09-14T01:32:12;15.30;99.90
2687;DHT22;1353;51.386;7.028;2022-09-14T01:34:45;15.30;99.90
2687;DHT22;1353;51.386;7.028;2022-09-14T01:37:17;15.20;99.90
2687;DHT22;1353;51.386;7.028;2022-09-14T01:39:50;15.20;99.90
2687;DHT22;1353;51.386;7.028;2022-09-14T01:42:21;15.30;99.90
2687;DHT22;1353;51.386;7.028;2022-09-14T01:44:52;15.30;99.90
2687;DHT22;1353;51.386;7.028;2022-09-14T01:47:27;15.30;99.90
2687;DHT22;1353;51.386;7.028;2022-09-14T01:50:00;15.30;99.90
2687;DHT22;1353;51.386;7.028;2022-09-14T01:52:33;15.20;99.90
2687;DHT22;1353;51.386;7.028;2022-09-14T01:55:06;15.20;99.90
2687;DHT22;1353;51.386;7.028;2022-09-14T01:57:40;15.20;99.90
2687;DHT22;1353;51.386;7.028;2022-09-14T02:00:10;15.20;99.90
2687;DHT22;1353;51.386;7.028;2022-09-14T02:02:39;15.20;99.90
2687;DHT22;1353;51.386;7.028;2022-09-14T02:05:11;15.20;99.90
2687;DHT22;1353;51.386;7.028;2022-09-14T02:07:38;15.20;99.90
2687;DHT22;1353;51.386;7.028;2022-09-14T02:10:08;15.20;99.90
2687;DHT22;1353;51.386;7.028;2022-09-14T02:12:38;15.20;99.90
2687;DHT22;1353;51.386;7.028;2022-09-14T02:15:07;15.10;99.90
2687;DHT22;1353;51.386;7.028;2022-09-14T02:17:34;15.10;99.90
2687;DHT22;1353;51.386;7.028;2022-09-14T02:20:03;15.10;99.90
2687;DHT22;1353;51.386;7.028;2022-09-14T02:22:31;15.10;99.90
2687;DHT22;1353;51.386;7.028;2022-09-14T02:24:58;15.00;99.90
2687;DHT22;1353;51.386;7.028;2022-09-14T02:27:25;15.00;99.90
2687;DHT22;1353;51.386;7.028;2022-09-14T02:29:54;14.90;99.90
2687;DHT22;1353;51.386;7.028;2022-09-14T02:32:27;14.90;99.90
2687;DHT22;1353;51.386;7.028;2022-09-14T02:35:01;14.90;99.90
2687;DHT22;1353;51.386;7.028;2022-09-14T02:37:38;14.80;99.90
2687;DHT22;1353;51.386;7.028;2022-09-14T02:40:12;14.70;99.90
2687;DHT22;1353;51.386;7.028;2022-09-14T02:42:52;14.60;99.90
2687;DHT22;1353;51.386;7.028;2022-09-14T02:45:27;14.50;99.90
2687;DHT22;1353;51.386;7.028;2022-09-14T02:48:02;14.50;99.90
2687;DHT22;1353;51.386;7.028;2022-09-14T02:50:35;14.50;99.90
2687;DHT22;1353;51.386;7.028;2022-09-14T02:53:08;14.40;99.90
2687;DHT22;1353;51.386;7.028;2022-09-14T02:55:38;14.40;99.90
2687;DHT22;1353;51.386;7.028;2022-09-14T02:58:08;14.30;99.90
2687;DHT22;1353;51.386;7.028;2022-09-14T03:00:38;14.40;99.90
2687;DHT22;1353;51.386;7.028;2022-09-14T03:03:06;14.40;99.90
2687;DHT22;1353;51.386;7.028;2022-09-14T03:05:34;14.40;99.90
2687;DHT22;1353;51.386;7.028;2022-09-14T03:08:02;14.30;99.90
2687;DHT22;1353;51.386;7.028;2022-09-14T03:10:29;14.40;99.90
2687;DHT22;1353;51.386;7.028;2022-09-14T03:12:56;14.30;99.90
2687;DHT22;1353;51.386;7.028;2022-09-14T03:15:23;14.30;99.90
2687;DHT22;1353;51.386;7.028;2022-09-14T03:17:52;14.20;99.90
2687;DHT22;1353;51.386;7.028;2022-09-14T03:20:21;14.20;99.90
2687;DHT22;1353;51.386;7.028;2022-09-14T03:22:49;14.20;99.90
2687;DHT22;1353;51.386;7.028;2022-09-14T03:25:16;14.30;99.90
2687;DHT22;1353;51.386;7.028;2022-09-14T03:27:48;14.20;99.90
2687;DHT22;1353;51.386;7.028;2022-09-14T03:30:16;14.20;99.90
2687;DHT22;1353;51.386;7.028;2022-09-14T03:32:43;14.20;99.90
2687;DHT22;1353;51.386;7.028;2022-09-14T03:35:11;14.20;99.90
2687;DHT22;1353;51.386;7.028;2022-09-14T03:37:40;14.20;99.90
2687;DHT22;1353;51.386;7.028;2022-09-14T03:40:09;14.20;99.90
2687;DHT22;1353;51.386;7.028;2022-09-14T03:42:36;14.20;99.90
2687;DHT22;1353;51.386;7.028;2022-09-14T03:45:07;14.10;99.90
2687;DHT22;1353;51.386;7.028;2022-09-14T03:47:34;14.10;99.90
2687;DHT22;1353;51.386;7.028;2022-09-14T03:50:00;14.10;99.90
2687;DHT22;1353;51.386;7.028;2022-09-14T03:52:28;14.10;99.90
2687;DHT22;1353;51.386;7.028;2022-09-14T03:54:55;14.10;99.90
2687;DHT22;1353;51.386;7.028;2022-09-14T03:57:22;14.00;99.90
2687;DHT22;1353;51.386;7.028;2022-09-14T03:59:49;14.00;99.90
2687;DHT22;1353;51.386;7.028;2022-09-14T04:02:15;14.00;99.90
2687;DHT22;1353;51.386;7.028;2022-09-14T04:04:42;14.00;99.90
2687;DHT22;1353;51.386;7.028;2022-09-14T04:07:09;13.90;99.90
2687;DHT22;1353;51.386;7.028;2022-09-14T04:09:37;13.90;99.90
2687;DHT22;1353;51.386;7.028;2022-09-14T04:12:05;13.90;99.90
2687;DHT22;1353;51.386;7.028;2022-09-14T04:14:31;13.90;99.90
2687;DHT22;1353;51.386;7.028;2022-09-14T04:16:58;14.00;99.90
2687;DHT22;1353;51.386;7.028;2022-09-14T04:19:25;14.00;99.90
2687;DHT22;1353;51.386;7.028;2022-09-14T04:21:52;14.00;99.90
2687;DHT22;1353;51.386;7.028;2022-09-14T04:24:19;14.00;99.90
2687;DHT22;1353;51.386;7.028;2022-09-14T04:26:47;14.00;99.90
2687;DHT22;1353;51.386;7.028;2022-09-14T04:29:14;14.00;99.90
2687;DHT22;1353;51.386;7.028;2022-09-14T04:31:40;14.00;99.90
2687;DHT22;1353;51.386;7.028;2022-09-14T04:34:10;13.90;99.90
2687;DHT22;1353;51.386;7.028;2022-09-14T04:36:37;13.90;99.90
2687;DHT22;1353;51.386;7.028;2022-09-14T04:39:04;14.00;99.90
2687;DHT22;1353;51.386;7.028;2022-09-14T04:41:31;14.00;99.90
2687;DHT22;1353;51.386;7.028;2022-09-14T04:44:00;14.00;99.90
2687;DHT22;1353;51.386;7.028;2022-09-14T04:46:28;13.90;99.90
2687;DHT22;1353;51.386;7.028;2022-09-14T04:48:55;13.90;99.90
2687;DHT22;1353;51.386;7.028;2022-09-14T04:51:24;13.90;99.90
2687;DHT22;1353;51.386;7.028;2022-09-14T04:53:52;13.90;99.90
2687;DHT22;1353;51.386;7.028;2022-09-14T04:56:21;13.90;99.90
2687;DHT22;1353;51.386;7.028;2022-09-14T04:58:50;13.80;99.90
2687;DHT22;1353;51.386;7.028;2022-09-14T05:01:21;13.80;99.90
2687;DHT22;1353;51.386;7.028;2022-09-14T05:03:49;13.80;99.90
2687;DHT22;1353;51.386;7.028;2022-09-14T05:06:17;13.70;99.90
2687;DHT22;1353;51.386;7.028;2022-09-14T05:08:45;13.70;99.90
2687;DHT22;1353;51.386;7.028;2022-09-14T05:11:15;13.60;99.90
2687;DHT22;1353;51.386;7.028;2022-09-14T05:13:43;13.60;99.90
2687;DHT22;1353;51.386;7.028;2022-09-14T05:16:13;13.60;99.90
2687;DHT22;1353;51.386;7.028;2022-09-14T05:18:42;13.50;99.90
2687;DHT22;1353;51.386;7.028;2022-09-14T05:21:11;13.50;99.90
2687;DHT22;1353;51.386;7.028;2022-09-14T05:23:38;13.50;99.90
2687;DHT22;1353;51.386;7.028;2022-09-14T05:26:05;13.40;99.90
2687;DHT22;1353;51.386;7.028;2022-09-14T05:28:32;13.50;99.90
2687;DHT22;1353;51.386;7.028;2022-09-14T05:31:03;13.40;99.90
2687;DHT22;1353;51.386;7.028;2022-09-14T05:33:30;13.40;99.90
2687;DHT22;1353;51.386;7.028;2022-09-14T05:36:00;13.40;99.90
2687;DHT22;1353;51.386;7.028;2022-09-14T05:38:28;13.40;99.90
2687;DHT22;1353;51.386;7.028;2022-09-14T05:40:54;13.40;99.90
2687;DHT22;1353;51.386;7.028;2022-09-14T05:43:21;13.40;99.90
2687;DHT22;1353;51.386;7.028;2022-09-14T05:45:48;13.40;99.90
2687;DHT22;1353;51.386;7.028;2022-09-14T05:48:15;13.40;99.90
2687;DHT22;1353;51.386;7.028;2022-09-14T05:50:42;13.40;99.90
2687;DHT22;1353;51.386;7.028;2022-09-14T05:53:10;13.30;99.90
2687;DHT22;1353;51.386;7.028;2022-09-14T05:55:37;13.40;99.90
2687;DHT22;1353;51.386;7.028;2022-09-14T05:58:04;13.40;99.90
2687;DHT22;1353;51.386;7.028;2022-09-14T06:00:31;13.40;99.90
2687;DHT22;1353;51.386;7.028;2022-09-14T06:02:57;13.40;99.90
2687;DHT22;1353;51.386;7.028;2022-09-14T06:05:24;13.40;99.90
2687;DHT22;1353;51.386;7.028;2022-09-14T06:07:52;13.50;99.90
2687;DHT22;1353;51.386;7.028;2022-09-14T06:10:20;13.40;99.90
2687;DHT22;1353;51.386;7.028;2022-09-14T06:12:48;13.40;99.90
2687;DHT22;1353;51.386;7.028;2022-09-14T06:15:14;13.50;99.90
2687;DHT22;1353;51.386;7.028;2022-09-14T06:17:42;13.50;99.90
2687;DHT22;1353;51.386;7.028;2022-09-14T06:20:09;13.50;99.90
2687;DHT22;1353;51.386;7.028;2022-09-14T06:22:36;13.50;99.90
2687;DHT22;1353;51.386;7.028;2022-09-14T06:25:03;13.50;99.90
2687;DHT22;1353;51.386;7.028;2022-09-14T06:27:31;13.60;99.90
2687;DHT22;1353;51.386;7.028;2022-09-14T06:29:58;13.60;99.90
2687;DHT22;1353;51.386;7.028;2022-09-14T06:32:25;13.60;99.90
2687;DHT22;1353;51.386;7.028;2022-09-14T06:34:52;13.50;99.90
2687;DHT22;1353;51.386;7.028;2022-09-14T06:37:18;13.50;99.90
2687;DHT22;1353;51.386;7.028;2022-09-14T06:39:45;13.50;99.90
2687;DHT22;1353;51.386;7.028;2022-09-14T06:42:12;13.50;99.90
2687;DHT22;1353;51.386;7.028;2022-09-14T06:44:40;13.50;99.90
2687;DHT22;1353;51.386;7.028;2022-09-14T06:47:07;13.50;99.90
2687;DHT22;1353;51.386;7.028;2022-09-14T06:49:34;13.40;99.90
2687;DHT22;1353;51.386;7.028;2022-09-14T06:52:01;13.50;99.90
2687;DHT22;1353;51.386;7.028;2022-09-14T06:54:28;13.50;99.90
2687;DHT22;1353;51.386;7.028;2022-09-14T06:56:55;13.40;99.90
2687;DHT22;1353;51.386;7.028;2022-09-14T06:59:21;13.40;99.90
2687;DHT22;1353;51.386;7.028;2022-09-14T07:01:49;13.30;99.90
2687;DHT22;1353;51.386;7.028;2022-09-14T07:04:17;13.40;99.90
2687;DHT22;1353;51.386;7.028;2022-09-14T07:06:46;13.30;99.90
2687;DHT22;1353;51.386;7.028;2022-09-14T07:09:13;13.40;99.90
2687;DHT22;1353;51.386;7.028;2022-09-14T07:11:40;13.40;99.90
2687;DHT22;1353;51.386;7.028;2022-09-14T07:14:08;13.30;99.90
2687;DHT22;1353;51.386;7.028;2022-09-14T07:16:37;13.30;99.90
2687;DHT22;1353;51.386;7.028;2022-09-14T07:19:08;13.20;99.90
2687;DHT22;1353;51.386;7.028;2022-09-14T07:21:36;13.20;99.90
2687;DHT22;1353;51.386;7.028;2022-09-14T07:24:03;13.20;99.90
2687;DHT22;1353;51.386;7.028;2022-09-14T07:26:31;13.20;99.90
2687;DHT22;1353;51.386;7.028;2022-09-14T07:29:00;13.30;99.90
2687;DHT22;1353;51.386;7.028;2022-09-14T07:31:28;13.20;99.90
2687;DHT22;1353;51.386;7.028;2022-09-14T07:33:57;13.40;99.90
2687;DHT22;1353;51.386;7.028;2022-09-14T07:36:26;13.30;99.90
2687;DHT22;1353;51.386;7.028;2022-09-14T07:38:53;13.20;99.90
2687;DHT22;1353;51.386;7.028;2022-09-14T07:41:22;13.30;99.90
2687;DHT22;1353;51.386;7.028;2022-09-14T07:43:49;13.20;99.90
2687;DHT22;1353;51.386;7.028;2022-09-14T07:46:17;13.30;99.90
2687;DHT22;1353;51.386;7.028;2022-09-14T07:48:44;13.20;99.90
2687;DHT22;1353;51.386;7.028;2022-09-14T07:51:11;13.20;99.90
2687;DHT22;1353;51.386;7.028;2022-09-14T07:53:41;13.30;99.90
2687;DHT22;1353;51.386;7.028;2022-09-14T07:56:09;13.30;99.90
2687;DHT22;1353;51.386;7.028;2022-09-14T07:58:36;13.40;99.90
2687;DHT22;1353;51.386;7.028;2022-09-14T08:01:04;13.30;99.90
2687;DHT22;1353;51.386;7.028;2022-09-14T08:03:32;13.40;99.90
2687;DHT22;1353;51.386;7.028;2022-09-14T08:06:01;13.40;99.90
2687;DHT22;1353;51.386;7.028;2022-09-14T08:08:28;13.40;99.90
2687;DHT22;1353;51.386;7.028;2022-09-14T08:11:03;13.10;99.90
2687;DHT22;1353;51.386;7.028;2022-09-14T08:13:31;13.20;99.90
2687;DHT22;1353;51.386;7.028;2022-09-14T08:15:58;13.30;99.90
2687;DHT22;1353;51.386;7.028;2022-09-14T08:18:26;13.10;99.90
2687;DHT22;1353;51.386;7.028;2022-09-14T08:20:53;13.10;99.90
2687;DHT22;1353;51.386;7.028;2022-09-14T08:23:20;13.10;99.90
2687;DHT22;1353;51.386;7.028;2022-09-14T08:25:46;13.10;99.90
2687;DHT22;1353;51.386;7.028;2022-09-14T08:28:15;13.10;99.90
2687;DHT22;1353;51.386;7.028;2022-09-14T08:30:41;13.10;99.90
2687;DHT22;1353;51.386;7.028;2022-09-14T08:33:08;13.00;99.90
2687;DHT22;1353;51.386;7.028;2022-09-14T08:35:41;13.20;99.90
2687;DHT22;1353;51.386;7.028;2022-09-14T08:38:08;13.10;99.90
2687;DHT22;1353;51.386;7.028;2022-09-14T08:40:42;13.10;99.90
2687;DHT22;1353;51.386;7.028;2022-09-14T08:43:10;13.20;99.90
2687;DHT22;1353;51.386;7.028;2022-09-14T08:45:41;13.20;99.90
2687;DHT22;1353;51.386;7.028;2022-09-14T08:48:13;13.30;99.90
2687;DHT22;1353;51.386;7.028;2022-09-14T08:50:42;13.30;99.90
2687;DHT22;1353;51.386;7.028;2022-09-14T08:53:09;13.20;99.90
2687;DHT22;1353;51.386;7.028;2022-09-14T08:55:40;13.30;99.90
2687;DHT22;1353;51.386;7.028;2022-09-14T08:58:18;13.20;99.90
2687;DHT22;1353;51.386;7.028;2022-09-14T09:00:51;13.30;99.90
2687;DHT22;1353;51.386;7.028;2022-09-14T09:03:35;13.20;99.90
2687;DHT22;1353;51.386;7.028;2022-09-14T09:06:10;13.20;99.90
2687;DHT22;1353;51.386;7.028;2022-09-14T09:08:43;13.30;99.90
2687;DHT22;1353;51.386;7.028;2022-09-14T09:11:15;13.20;99.90
2687;DHT22;1353;51.386;7.028;2022-09-14T09:13:44;13.20;99.90
2687;DHT22;1353;51.386;7.028;2022-09-14T09:16:16;13.20;99.90
2687;DHT22;1353;51.386;7.028;2022-09-14T09:18:46;13.20;99.90
2687;DHT22;1353;51.386;7.028;2022-09-14T09:21:16;13.20;99.90
2687;DHT22;1353;51.386;7.028;2022-09-14T09:23:43;13.00;99.90
2687;DHT22;1353;51.386;7.028;2022-09-14T09:26:15;13.10;99.90
2687;DHT22;1353;51.386;7.028;2022-09-14T09:28:45;13.10;99.90
2687;DHT22;1353;51.386;7.028;2022-09-14T09:31:16;13.00;99.90
2687;DHT22;1353;51.386;7.028;2022-09-14T09:33:47;13.10;99.90
2687;DHT22;1353;51.386;7.028;2022-09-14T09:36:14;13.20;99.90
2687;DHT22;1353;51.386;7.028;2022-09-14T09:38:41;13.10;99.90
2687;DHT22;1353;51.386;7.028;2022-09-14T09:41:13;13.10;99.90
2687;DHT22;1353;51.386;7.028;2022-09-14T09:43:56;13.10;99.90
2687;DHT22;1353;51.386;7.028;2022-09-14T09:46:25;13.10;99.90
2687;DHT22;1353;51.386;7.028;2022-09-14T09:48:53;13.10;99.90
2687;DHT22;1353;51.386;7.028;2022-09-14T09:51:26;13.10;99.90
2687;DHT22;1353;51.386;7.028;2022-09-14T09:54:01;13.20;99.90
2687;DHT22;1353;51.386;7.028;2022-09-14T09:56:32;13.20;99.90
2687;DHT22;1353;51.386;7.028;2022-09-14T09:59:00;13.30;99.90
2687;DHT22;1353;51.386;7.028;2022-09-14T10:01:30;13.20;99.90
2687;DHT22;1353;51.386;7.028;2022-09-14T10:04:04;13.20;99.90
2687;DHT22;1353;51.386;7.028;2022-09-14T10:06:33;13.20;99.90
2687;DHT22;1353;51.386;7.028;2022-09-14T10:09:11;13.30;99.90
2687;DHT22;1353;51.386;7.028;2022-09-14T10:11:38;13.20;99.90
2687;DHT22;1353;51.386;7.028;2022-09-14T10:14:20;13.20;99.90
2687;DHT22;1353;51.386;7.028;2022-09-14T10:16:49;13.10;99.90
2687;DHT22;1353;51.386;7.028;2022-09-14T10:19:20;13.10;99.90
2687;DHT22;1353;51.386;7.028;2022-09-14T10:22:02;13.20;99.90
2687;DHT22;1353;51.386;7.028;2022-09-14T10:24:31;13.10;99.90
2687;DHT22;1353;51.386;7.028;2022-09-14T10:26:59;13.20;99.90
2687;DHT22;1353;51.386;7.028;2022-09-14T10:29:33;13.20;99.90
2687;DHT22;1353;51.386;7.028;2022-09-14T10:32:10;13.30;99.90
2687;DHT22;1353;51.386;7.028;2022-09-14T10:34:42;13.20;99.90
2687;DHT22;1353;51.386;7.028;2022-09-14T10:37:17;13.30;99.90
2687;DHT22;1353;51.386;7.028;2022-09-14T10:40:04;13.40;99.90
2687;DHT22;1353;51.386;7.028;2022-09-14T10:42:36;13.30;99.90
2687;DHT22;1353;51.386;7.028;2022-09-14T10:45:17;13.30;99.90
2687;DHT22;1353;51.386;7.028;2022-09-14T10:48:17;13.30;99.90
2687;DHT22;1353;51.386;7.028;2022-09-14T10:50:56;13.40;99.90
2687;DHT22;1353;51.386;7.028;2022-09-14T10:53:36;13.40;99.90
2687;DHT22;1353;51.386;7.028;2022-09-14T10:56:12;13.30;99.90
2687;DHT22;1353;51.386;7.028;2022-09-14T10:59:02;13.50;99.90
2687;DHT22;1353;51.386;7.028;2022-09-14T11:02:00;13.60;99.90
2687;DHT22;1353;51.386;7.028;2022-09-14T11:04:52;13.50;99.90
2687;DHT22;1353;51.386;7.028;2022-09-14T11:07:26;13.60;99.90
2687;DHT22;1353;51.386;7.028;2022-09-14T11:10:00;13.50;99.90
2687;DHT22;1353;51.386;7.028;2022-09-14T11:12:35;13.50;99.90
2687;DHT22;1353;51.386;7.028;2022-09-14T11:15:13;13.40;99.90
2687;DHT22;1353;51.386;7.028;2022-09-14T11:17:51;13.30;99.90
2687;DHT22;1353;51.386;7.028;2022-09-14T11:20:29;13.20;99.90
2687;DHT22;1353;51.386;7.028;2022-09-14T11:23:06;13.20;99.90
2687;DHT22;1353;51.386;7.028;2022-09-14T11:25:42;13.20;99.90
2687;DHT22;1353;51.386;7.028;2022-09-14T11:28:15;13.20;99.90
2687;DHT22;1353;51.386;7.028;2022-09-14T11:30:45;13.20;99.90
2687;DHT22;1353;51.386;7.028;2022-09-14T11:33:19;13.10;99.90
2687;DHT22;1353;51.386;7.028;2022-09-14T11:35:51;13.10;99.90
2687;DHT22;1353;51.386;7.028;2022-09-14T11:38:20;13.10;99.90
2687;DHT22;1353;51.386;7.028;2022-09-14T11:40:52;13.10;99.90
2687;DHT22;1353;51.386;7.028;2022-09-14T11:43:24;13.10;99.90
2687;DHT22;1353;51.386;7.028;2022-09-14T11:46:06;13.10;99.90
2687;DHT22;1353;51.386;7.028;2022-09-14T11:48:35;13.00;99.90
2687;DHT22;1353;51.386;7.028;2022-09-14T11:51:06;13.10;99.90
2687;DHT22;1353;51.386;7.028;2022-09-14T11:53:35;13.30;99.90
2687;DHT22;1353;51.386;7.028;2022-09-14T11:56:02;13.10;99.90
2687;DHT22;1353;51.386;7.028;2022-09-14T11:58:29;13.10;99.90
2687;DHT22;1353;51.386;7.028;2022-09-14T12:01:03;13.00;99.90
2687;DHT22;1353;51.386;7.028;2022-09-14T12:04:05;13.30;99.90
2687;DHT22;1353;51.386;7.028;2022-09-14T12:06:48;13.20;99.90
2687;DHT22;1353;51.386;7.028;2022-09-14T12:09:41;13.10;99.90
2687;DHT22;1353;51.386;7.028;2022-09-14T12:12:33;13.10;99.90
2687;DHT22;1353;51.386;7.028;2022-09-14T12:15:03;13.20;99.90
2687;DHT22;1353;51.386;7.028;2022-09-14T12:17:32;13.40;99.90
2687;DHT22;1353;51.386;7.028;2022-09-14T12:20:27;13.30;99.90
2687;DHT22;1353;51.386;7.028;2022-09-14T12:23:06;13.40;99.90
2687;DHT22;1353;51.386;7.028;2022-09-14T12:25:39;13.50;99.90
2687;DHT22;1353;51.386;7.028;2022-09-14T12:28:36;13.80;99.90
2687;DHT22;1353;51.386;7.028;2022-09-14T12:31:10;13.50;99.90
2687;DHT22;1353;51.386;7.028;2022-09-14T12:33:42;13.40;99.90
2687;DHT22;1353;51.386;7.028;2022-09-14T12:36:54;13.50;99.90
2687;DHT22;1353;51.386;7.028;2022-09-14T12:39:20;13.30;99.90
2687;DHT22;1353;51.386;7.028;2022-09-14T12:42:24;13.40;99.90
2687;DHT22;1353;51.386;7.028;2022-09-14T12:44:51;13.40;99.90
2687;DHT22;1353;51.386;7.028;2022-09-14T12:47:38;13.40;99.90
2687;DHT22;1353;51.386;7.028;2022-09-14T12:50:16;13.40;99.90
2687;DHT22;1353;51.386;7.028;2022-09-14T12:52:51;13.60;99.90
2687;DHT22;1353;51.386;7.028;2022-09-14T12:55:38;13.50;99.90
2687;DHT22;1353;51.386;7.028;2022-09-14T12:58:12;13.40;99.90
2687;DHT22;1353;51.386;7.028;2022-09-14T13:00:53;13.40;99.90
2687;DHT22;1353;51.386;7.028;2022-09-14T13:03:41;13.40;99.90
2687;DHT22;1353;51.386;7.028;2022-09-14T13:06:11;13.40;99.90
2687;DHT22;1353;51.386;7.028;2022-09-14T13:08:43;13.40;99.90
2687;DHT22;1353;51.386;7.028;2022-09-14T13:11:23;13.40;99.90
2687;DHT22;1353;51.386;7.028;2022-09-14T13:13:51;13.40;99.90
2687;DHT22;1353;51.386;7.028;2022-09-14T13:16:32;13.50;99.90
2687;DHT22;1353;51.386;7.028;2022-09-14T13:19:03;13.50;99.90
2687;DHT22;1353;51.386;7.028;2022-09-14T13:21:30;13.30;99.90
2687;DHT22;1353;51.386;7.028;2022-09-14T13:23:57;13.10;99.90
2687;DHT22;1353;51.386;7.028;2022-09-14T13:26:26;13.20;99.90
2687;DHT22;1353;51.386;7.028;2022-09-14T13:28:55;13.20;99.90
2687;DHT22;1353;51.386;7.028;2022-09-14T13:31:27;13.20;99.90
2687;DHT22;1353;51.386;7.028;2022-09-14T13:33:56;13.30;99.90
2687;DHT22;1353;51.386;7.028;2022-09-14T13:36:24;13.20;99.90
2687;DHT22;1353;51.386;7.028;2022-09-14T13:38:52;13.30;99.90
2687;DHT22;1353;51.386;7.028;2022-09-14T13:41:20;13.40;99.90
2687;DHT22;1353;51.386;7.028;2022-09-14T13:43:51;13.30;99.90
2687;DHT22;1353;51.386;7.028;2022-09-14T13:46:20;13.50;99.90
2687;DHT22;1353;51.386;7.028;2022-09-14T13:48:46;13.30;99.90
2687;DHT22;1353;51.386;7.028;2022-09-14T13:51:15;13.50;99.90
2687;DHT22;1353;51.386;7.028;2022-09-14T13:53:44;13.50;99.90
2687;DHT22;1353;51.386;7.028;2022-09-14T13:56:25;13.50;99.90
2687;DHT22;1353;51.386;7.028;2022-09-14T13:59:21;13.50;99.90
2687;DHT22;1353;51.386;7.028;2022-09-14T14:01:52;13.80;99.90
2687;DHT22;1353;51.386;7.028;2022-09-14T14:04:27;13.80;99.90
2687;DHT22;1353;51.386;7.028;2022-09-14T14:07:04;13.70;99.90
2687;DHT22;1353;51.386;7.028;2022-09-14T14:09:40;13.60;99.90
2687;DHT22;1353;51.386;7.028;2022-09-14T14:12:09;13.80;99.90
2687;DHT22;1353;51.386;7.028;2022-09-14T14:14:38;13.70;99.90
2687;DHT22;1353;51.386;7.028;2022-09-14T14:17:32;13.50;99.90
2687;DHT22;1353;51.386;7.028;2022-09-14T14:20:31;13.50;99.90
2687;DHT22;1353;51.386;7.028;2022-09-14T14:23:13;13.60;99.90
2687;DHT22;1353;51.386;7.028;2022-09-14T14:25:43;13.60;99.90
2687;DHT22;1353;51.386;7.028;2022-09-14T14:28:15;13.70;99.90
2687;DHT22;1353;51.386;7.028;2022-09-14T14:30:45;13.80;99.90
2687;DHT22;1353;51.386;7.028;2022-09-14T14:33:14;13.70;99.90
2687;DHT22;1353;51.386;7.028;2022-09-14T14:35:43;13.90;99.90
2687;DHT22;1353;51.386;7.028;2022-09-14T14:38:10;13.90;99.90
2687;DHT22;1353;51.386;7.028;2022-09-14T14:40:38;13.70;99.90
2687;DHT22;1353;51.386;7.028;2022-09-14T14:43:06;13.80;99.90
2687;DHT22;1353;51.386;7.028;2022-09-14T14:45:33;13.80;99.90
2687;DHT22;1353;51.386;7.028;2022-09-14T14:48:02;13.90;99.90
2687;DHT22;1353;51.386;7.028;2022-09-14T14:50:30;14.00;99.90
2687;DHT22;1353;51.386;7.028;2022-09-14T14:52:58;14.30;99.90
2687;DHT22;1353;51.386;7.028;2022-09-14T14:55:26;14.30;99.90
2687;DHT22;1353;51.386;7.028;2022-09-14T14:57:57;14.10;99.90
2687;DHT22;1353;51.386;7.028;2022-09-14T15:00:26;14.00;99.90
2687;DHT22;1353;51.386;7.028;2022-09-14T15:02:53;14.40;99.90
2687;DHT22;1353;51.386;7.028;2022-09-14T15:05:21;14.20;99.90
2687;DHT22;1353;51.386;7.028;2022-09-14T15:07:48;14.20;99.90
2687;DHT22;1353;51.386;7.028;2022-09-14T15:10:18;14.20;99.90
2687;DHT22;1353;51.386;7.028;2022-09-14T15:12:45;14.20;99.90
2687;DHT22;1353;51.386;7.028;2022-09-14T15:15:13;14.30;99.90
2687;DHT22;1353;51.386;7.028;2022-09-14T15:17:41;14.30;99.90
2687;DHT22;1353;51.386;7.028;2022-09-14T15:20:08;14.10;99.90
2687;DHT22;1353;51.386;7.028;2022-09-14T15:22:37;14.30;99.90
2687;DHT22;1353;51.386;7.028;2022-09-14T15:25:08;14.40;99.90
2687;DHT22;1353;51.386;7.028;2022-09-14T15:27:35;14.50;99.90
2687;DHT22;1353;51.386;7.028;2022-09-14T15:30:02;14.40;99.90
2687;DHT22;1353;51.386;7.028;2022-09-14T15:32:29;14.70;99.90
2687;DHT22;1353;51.386;7.028;2022-09-14T15:34:56;14.50;99.90
2687;DHT22;1353;51.386;7.028;2022-09-14T15:37:23;14.50;99.90
2687;DHT22;1353;51.386;7.028;2022-09-14T15:39:51;14.60;99.90
2687;DHT22;1353;51.386;7.028;2022-09-14T15:42:18;14.70;99.90
2687;DHT22;1353;51.386;7.028;2022-09-14T15:44:44;14.50;99.90
2687;DHT22;1353;51.386;7.028;2022-09-14T15:47:12;14.50;99.90
2687;DHT22;1353;51.386;7.028;2022-09-14T15:49:40;14.60;99.90
2687;DHT22;1353;51.386;7.028;2022-09-14T15:52:08;14.60;99.90
2687;DHT22;1353;51.386;7.028;2022-09-14T15:54:36;14.70;99.90
2687;DHT22;1353;51.386;7.028;2022-09-14T15:57:07;14.70;99.90
2687;DHT22;1353;51.386;7.028;2022-09-14T15:59:34;14.80;99.90
2687;DHT22;1353;51.386;7.028;2022-09-14T16:02:01;14.70;99.90
2687;DHT22;1353;51.386;7.028;2022-09-14T16:04:30;14.80;99.90
2687;DHT22;1353;51.386;7.028;2022-09-14T16:06:59;14.60;99.90
2687;DHT22;1353;51.386;7.028;2022-09-14T16:09:26;14.80;99.90
2687;DHT22;1353;51.386;7.028;2022-09-14T16:11:53;14.80;99.90
2687;DHT22;1353;51.386;7.028;2022-09-14T16:14:21;14.70;99.90
2687;DHT22;1353;51.386;7.028;2022-09-14T16:16:48;14.70;99.90
2687;DHT22;1353;51.386;7.028;2022-09-14T16:19:15;14.70;99.90
2687;DHT22;1353;51.386;7.028;2022-09-14T16:21:42;14.70;99.90
2687;DHT22;1353;51.386;7.028;2022-09-14T16:24:11;14.60;99.90
2687;DHT22;1353;51.386;7.028;2022-09-14T16:26:38;14.60;99.90